sensor_id;sensor_type;location;lat;lon;timestamp;temperature;humidity
51011;DHT22;37038;50.182;8.624;2023-01-26T00:11:15;1.40;99.90
51011;DHT22;37038;50.182;8.624;2023-01-26T00:14:27;1.60;99.90
51011;DHT22;37038;50.182;8.624;2023-01-26T00:26:05;1.50;99.90
51011;DHT22;37038;50.182;8.624;2023-01-26T00:38:21;1.00;99.90
51011;DHT22;37038;50.182;8.624;2023-01-26T00:49:47;1.20;99.90
51011;DHT22;37038;50.182;8.624;2023-01-26T01:11:39;1.20;99.90
51011;DHT22;37038;50.182;8.624;2023-01-26T01:15:21;1.10;99.90
51011;DHT22;37038;50.182;8.624;2023-01-26T01:18:37;1.10;99.90
51011;DHT22;37038;50.182;8.624;2023-01-26T02:09:53;0.90;99.90
51011;DHT22;37038;50.182;8.624;2023-01-26T02:13:10;0.80;99.90
51011;DHT22;37038;50.182;8.624;2023-01-26T02:19:47;0.70;99.90
51011;DHT22;37038;50.182;8.624;2023-01-26T02:22:54;0.50;99.90
51011;DHT22;37038;50.182;8.624;2023-01-26T02:26:23;0.60;99.90
51011;DHT22;37038;50.182;8.624;2023-01-26T02:29:22;0.60;99.90
51011;DHT22;37038;50.182;8.624;2023-01-26T02:32:14;0.50;99.90
51011;DHT22;37038;50.182;8.624;2023-01-26T03:21:15;0.90;99.90
51011;DHT22;37038;50.182;8.624;2023-01-26T03:24:24;1.00;99.90
51011;DHT22;37038;50.182;8.624;2023-01-26T03:27:40;1.00;99.90
51011;DHT22;37038;50.182;8.624;2023-01-26T03:30:29;0.90;99.90
51011;DHT22;37038;50.182;8.624;2023-01-26T03:33:19;1.00;99.90
51011;DHT22;37038;50.182;8.624;2023-01-26T03:36:10;0.90;99.90
51011;DHT22;37038;50.182;8.624;2023-01-26T03:39:05;0.80;99.90
51011;DHT22;37038;50.182;8.624;2023-01-26T03:42:00;0.80;99.90
51011;DHT22;37038;50.182;8.624;2023-01-26T03:45:07;0.80;99.90
51011;DHT22;37038;50.182;8.624;2023-01-26T03:48:18;0.70;99.90
51011;DHT22;37038;50.182;8.624;2023-01-26T03:51:37;0.80;99.90
51011;DHT22;37038;50.182;8.624;2023-01-26T03:54:47;0.80;99.90
51011;DHT22;37038;50.182;8.624;2023-01-26T03:58:12;0.80;99.90
51011;DHT22;37038;50.182;8.624;2023-01-26T04:01:05;0.80;99.90
51011;DHT22;37038;50.182;8.624;2023-01-26T04:04:10;0.80;99.90
51011;DHT22;37038;50.182;8.624;2023-01-26T04:07:22;0.70;99.90
51011;DHT22;37038;50.182;8.624;2023-01-26T04:10:45;1.00;99.90
51011;DHT22;37038;50.182;8.624;2023-01-26T04:13:37;1.10;99.90
51011;DHT22;37038;50.182;8.624;2023-01-26T04:16:48;1.00;99.90
51011;DHT22;37038;50.182;8.624;2023-01-26T04:19:58;0.90;99.90
51011;DHT22;37038;50.182;8.624;2023-01-26T04:23:19;0.90;99.90
51011;DHT22;37038;50.182;8.624;2023-01-26T04:26:16;0.80;99.90
51011;DHT22;37038;50.182;8.624;2023-01-26T04:29:15;0.90;99.90
51011;DHT22;37038;50.182;8.624;2023-01-26T04:32:20;1.00;99.90
51011;DHT22;37038;50.182;8.624;2023-01-26T04:35:15;1.10;99.90
51011;DHT22;37038;50.182;8.624;2023-01-26T04:38:26;1.00;99.90
51011;DHT22;37038;50.182;8.624;2023-01-26T04:41:24;1.00;99.90
51011;DHT22;37038;50.182;8.624;2023-01-26T04:44:29;1.00;99.90
51011;DHT22;37038;50.182;8.624;2023-01-26T04:47:27;0.90;99.90
51011;DHT22;37038;50.182;8.624;2023-01-26T05:06:18;0.90;99.90
51011;DHT22;37038;50.182;8.624;2023-01-26T05:09:23;1.00;99.90
51011;DHT22;37038;50.182;8.624;2023-01-26T05:12:13;1.00;99.90
51011;DHT22;37038;50.182;8.624;2023-01-26T05:15:28;1.00;99.90
51011;DHT22;37038;50.182;8.624;2023-01-26T05:18:27;1.00;99.90
51011;DHT22;37038;50.182;8.624;2023-01-26T05:21:29;1.00;99.90
51011;DHT22;37038;50.182;8.624;2023-01-26T05:24:23;1.00;99.90
51011;DHT22;37038;50.182;8.624;2023-01-26T05:37:32;1.10;99.90
51011;DHT22;37038;50.182;8.624;2023-01-26T05:40:25;0.90;99.90
51011;DHT22;37038;50.182;8.624;2023-01-26T05:43:22;0.90;99.90
51011;DHT22;37038;50.182;8.624;2023-01-26T05:46:14;0.90;99.90
51011;DHT22;37038;50.182;8.624;2023-01-26T05:49:07;0.90;99.90
51011;DHT22;37038;50.182;8.624;2023-01-26T05:52:00;0.90;99.90
51011;DHT22;37038;50.182;8.624;2023-01-26T05:54:52;0.60;99.90
51011;DHT22;37038;50.182;8.624;2023-01-26T05:57:47;0.60;99.90
51011;DHT22;37038;50.182;8.624;2023-01-26T06:03:22;0.40;99.90
51011;DHT22;37038;50.182;8.624;2023-01-26T06:06:13;0.30;99.90
51011;DHT22;37038;50.182;8.624;2023-01-26T06:09:04;0.20;99.90
51011;DHT22;37038;50.182;8.624;2023-01-26T06:17:23;-0.10;99.90
51011;DHT22;37038;50.182;8.624;2023-01-26T06:20:12;0.00;99.90
51011;DHT22;37038;50.182;8.624;2023-01-26T06:23:07;0.00;99.90
51011;DHT22;37038;50.182;8.624;2023-01-26T06:26:16;0.10;99.90
51011;DHT22;37038;50.182;8.624;2023-01-26T06:29:04;-0.20;99.90
51011;DHT22;37038;50.182;8.624;2023-01-26T06:31:52;0.00;99.90
51011;DHT22;37038;50.182;8.624;2023-01-26T06:34:40;0.00;99.90
51011;DHT22;37038;50.182;8.624;2023-01-26T06:37:37;0.10;99.90
51011;DHT22;37038;50.182;8.624;2023-01-26T06:40:28;-0.10;99.90
51011;DHT22;37038;50.182;8.624;2023-01-26T06:43:16;-0.10;99.90
51011;DHT22;37038;50.182;8.624;2023-01-26T06:46:04;-0.10;99.90
51011;DHT22;37038;50.182;8.624;2023-01-26T06:48:52;-0.30;99.90
51011;DHT22;37038;50.182;8.624;2023-01-26T06:51:58;-0.50;99.90
51011;DHT22;37038;50.182;8.624;2023-01-26T06:54:50;-0.40;99.90
51011;DHT22;37038;50.182;8.624;2023-01-26T06:57:41;-0.30;99.90
51011;DHT22;37038;50.182;8.624;2023-01-26T07:00:32;-0.40;99.90
51011;DHT22;37038;50.182;8.624;2023-01-26T07:03:22;-0.30;99.90
51011;DHT22;37038;50.182;8.624;2023-01-26T07:06:15;-0.30;99.90
51011;DHT22;37038;50.182;8.624;2023-01-26T07:09:08;-0.20;99.90
51011;DHT22;37038;50.182;8.624;2023-01-26T07:11:58;-0.10;99.90
51011;DHT22;37038;50.182;8.624;2023-01-26T07:14:50;-0.30;99.90
51011;DHT22;37038;50.182;8.624;2023-01-26T07:17:39;-0.40;99.90
51011;DHT22;37038;50.182;8.624;2023-01-26T07:20:31;-0.40;99.90
51011;DHT22;37038;50.182;8.624;2023-01-26T07:23:20;-0.20;99.90
51011;DHT22;37038;50.182;8.624;2023-01-26T07:26:12;-0.40;99.90
51011;DHT22;37038;50.182;8.624;2023-01-26T07:29:00;-0.40;99.90
51011;DHT22;37038;50.182;8.624;2023-01-26T07:31:59;-0.40;99.90
51011;DHT22;37038;50.182;8.624;2023-01-26T07:35:00;-0.20;99.90
51011;DHT22;37038;50.182;8.624;2023-01-26T07:37:49;-0.30;99.90
51011;DHT22;37038;50.182;8.624;2023-01-26T07:40:39;-0.20;99.90
51011;DHT22;37038;50.182;8.624;2023-01-26T07:43:32;-0.10;99.90
51011;DHT22;37038;50.182;8.624;2023-01-26T07:46:20;-0.20;99.90
51011;DHT22;37038;50.182;8.624;2023-01-26T07:49:08;-0.20;99.90
51011;DHT22;37038;50.182;8.624;2023-01-26T07:52:00;-0.30;99.90
51011;DHT22;37038;50.182;8.624;2023-01-26T07:54:51;-0.20;99.90
51011;DHT22;37038;50.182;8.624;2023-01-26T07:57:46;-0.20;99.90
51011;DHT22;37038;50.182;8.624;2023-01-26T08:00:36;-0.20;99.90
51011;DHT22;37038;50.182;8.624;2023-01-26T08:03:23;-0.20;99.90
51011;DHT22;37038;50.182;8.624;2023-01-26T08:06:12;-0.30;99.90
51011;DHT22;37038;50.182;8.624;2023-01-26T08:09:02;-0.30;99.90
51011;DHT22;37038;50.182;8.624;2023-01-26T08:11:56;-0.10;99.90
51011;DHT22;37038;50.182;8.624;2023-01-26T08:14:46;0.00;99.90
51011;DHT22;37038;50.182;8.624;2023-01-26T08:17:34;-0.10;99.90
51011;DHT22;37038;50.182;8.624;2023-01-26T08:20:23;-0.30;99.90
51011;DHT22;37038;50.182;8.624;2023-01-26T08:23:11;-0.40;99.90
51011;DHT22;37038;50.182;8.624;2023-01-26T08:26:05;-0.50;99.90
51011;DHT22;37038;50.182;8.624;2023-01-26T08:28:54;-0.40;99.90
51011;DHT22;37038;50.182;8.624;2023-01-26T08:31:42;-0.30;99.90
51011;DHT22;37038;50.182;8.624;2023-01-26T08:34:30;-0.30;99.90
51011;DHT22;37038;50.182;8.624;2023-01-26T08:37:18;-0.40;99.90
51011;DHT22;37038;50.182;8.624;2023-01-26T08:40:09;-0.40;99.90
51011;DHT22;37038;50.182;8.624;2023-01-26T08:43:01;-0.30;99.90
51011;DHT22;37038;50.182;8.624;2023-01-26T08:45:49;-0.10;99.90
51011;DHT22;37038;50.182;8.624;2023-01-26T08:48:37;-0.20;99.90
51011;DHT22;37038;50.182;8.624;2023-01-26T08:51:26;-0.50;99.90
51011;DHT22;37038;50.182;8.624;2023-01-26T08:54:15;-0.40;99.90
51011;DHT22;37038;50.182;8.624;2023-01-26T08:57:03;-0.20;99.90
51011;DHT22;37038;50.182;8.624;2023-01-26T08:59:51;-0.40;99.90
51011;DHT22;37038;50.182;8.624;2023-01-26T09:02:39;-0.30;99.90
51011;DHT22;37038;50.182;8.624;2023-01-26T09:05:30;-0.30;99.90
51011;DHT22;37038;50.182;8.624;2023-01-26T09:08:19;-0.10;99.90
51011;DHT22;37038;50.182;8.624;2023-01-26T09:11:07;-0.20;99.90
51011;DHT22;37038;50.182;8.624;2023-01-26T09:13:54;-0.10;99.90
51011;DHT22;37038;50.182;8.624;2023-01-26T09:16:45;-0.20;99.90
51011;DHT22;37038;50.182;8.624;2023-01-26T09:19:36;-0.10;99.90
51011;DHT22;37038;50.182;8.624;2023-01-26T09:22:26;0.10;99.90
51011;DHT22;37038;50.182;8.624;2023-01-26T09:25:14;0.40;99.90
51011;DHT22;37038;50.182;8.624;2023-01-26T09:28:03;0.20;99.90
51011;DHT22;37038;50.182;8.624;2023-01-26T09:30:52;0.00;99.90
51011;DHT22;37038;50.182;8.624;2023-01-26T09:33:40;0.10;99.90
51011;DHT22;37038;50.182;8.624;2023-01-26T09:36:31;0.10;99.90
51011;DHT22;37038;50.182;8.624;2023-01-26T09:39:19;-0.10;99.90
51011;DHT22;37038;50.182;8.624;2023-01-26T09:42:29;-0.20;99.90
51011;DHT22;37038;50.182;8.624;2023-01-26T09:51:48;0.10;99.90
51011;DHT22;37038;50.182;8.624;2023-01-26T09:54:42;0.10;99.90
51011;DHT22;37038;50.182;8.624;2023-01-26T09:57:45;0.00;99.90
51011;DHT22;37038;50.182;8.624;2023-01-26T10:00:57;0.10;99.90
51011;DHT22;37038;50.182;8.624;2023-01-26T10:04:03;-0.10;99.90
51011;DHT22;37038;50.182;8.624;2023-01-26T10:06:53;-0.20;99.90
51011;DHT22;37038;50.182;8.624;2023-01-26T10:09:46;-0.40;99.90
51011;DHT22;37038;50.182;8.624;2023-01-26T10:12:36;-0.20;99.90
51011;DHT22;37038;50.182;8.624;2023-01-26T10:15:36;-0.10;99.90
51011;DHT22;37038;50.182;8.624;2023-01-26T10:18:32;0.00;99.90
51011;DHT22;37038;50.182;8.624;2023-01-26T10:21:24;0.20;99.90
51011;DHT22;37038;50.182;8.624;2023-01-26T10:24:16;0.10;99.90
51011;DHT22;37038;50.182;8.624;2023-01-26T10:27:10;0.10;99.90
51011;DHT22;37038;50.182;8.624;2023-01-26T10:30:00;-0.10;99.90
51011;DHT22;37038;50.182;8.624;2023-01-26T10:32:51;0.30;99.90
51011;DHT22;37038;50.182;8.624;2023-01-26T10:35:40;0.50;99.90
51011;DHT22;37038;50.182;8.624;2023-01-26T10:38:38;0.40;99.90
51011;DHT22;37038;50.182;8.624;2023-01-26T10:41:27;0.50;99.90
51011;DHT22;37038;50.182;8.624;2023-01-26T10:47:16;0.70;99.90
51011;DHT22;37038;50.182;8.624;2023-01-26T10:50:22;0.80;99.90
51011;DHT22;37038;50.182;8.624;2023-01-26T10:58:54;0.30;99.90
51011;DHT22;37038;50.182;8.624;2023-01-26T11:02:20;0.30;99.90
51011;DHT22;37038;50.182;8.624;2023-01-26T11:07:57;0.40;99.90
51011;DHT22;37038;50.182;8.624;2023-01-26T11:10:55;0.30;99.90
51011;DHT22;37038;50.182;8.624;2023-01-26T11:13:43;0.30;99.90
51011;DHT22;37038;50.182;8.624;2023-01-26T11:16:31;0.30;99.90
51011;DHT22;37038;50.182;8.624;2023-01-26T11:32:25;1.30;99.90
51011;DHT22;37038;50.182;8.624;2023-01-26T11:38:51;1.90;99.90
51011;DHT22;37038;50.182;8.624;2023-01-26T11:48:16;2.60;99.90
51011;DHT22;37038;50.182;8.624;2023-01-26T11:51:21;2.50;99.90
51011;DHT22;37038;50.182;8.624;2023-01-26T11:54:22;2.20;99.90
51011;DHT22;37038;50.182;8.624;2023-01-26T11:57:17;2.40;99.90
51011;DHT22;37038;50.182;8.624;2023-01-26T12:00:18;2.40;99.90
51011;DHT22;37038;50.182;8.624;2023-01-26T12:03:45;2.30;99.90
51011;DHT22;37038;50.182;8.624;2023-01-26T12:06:44;2.30;99.90
51011;DHT22;37038;50.182;8.624;2023-01-26T12:09:40;2.30;99.90
51011;DHT22;37038;50.182;8.624;2023-01-26T12:12:40;2.00;99.90
51011;DHT22;37038;50.182;8.624;2023-01-26T12:15:37;1.70;99.90
51011;DHT22;37038;50.182;8.624;2023-01-26T12:18:38;1.70;99.90
51011;DHT22;37038;50.182;8.624;2023-01-26T12:21:48;1.80;99.90
51011;DHT22;37038;50.182;8.624;2023-01-26T12:24:46;1.30;99.90
51011;DHT22;37038;50.182;8.624;2023-01-26T12:28:15;1.50;99.90
51011;DHT22;37038;50.182;8.624;2023-01-26T12:34:08;1.50;99.90
51011;DHT22;37038;50.182;8.624;2023-01-26T12:40:07;1.80;99.90
51011;DHT22;37038;50.182;8.624;2023-01-26T12:46:13;1.70;99.90
51011;DHT22;37038;50.182;8.624;2023-01-26T12:52:44;1.80;99.90
51011;DHT22;37038;50.182;8.624;2023-01-26T12:55:46;1.90;99.90
51011;DHT22;37038;50.182;8.624;2023-01-26T12:58:44;1.60;99.90
51011;DHT22;37038;50.182;8.624;2023-01-26T13:01:39;1.30;99.90
51011;DHT22;37038;50.182;8.624;2023-01-26T13:04:27;1.50;99.90
51011;DHT22;37038;50.182;8.624;2023-01-26T13:07:34;1.90;99.90
51011;DHT22;37038;50.182;8.624;2023-01-26T13:10:25;2.30;99.90
51011;DHT22;37038;50.182;8.624;2023-01-26T13:19:04;2.00;99.90
51011;DHT22;37038;50.182;8.624;2023-01-26T13:21:52;2.00;99.90
51011;DHT22;37038;50.182;8.624;2023-01-26T13:24:47;1.80;99.90
51011;DHT22;37038;50.182;8.624;2023-01-26T13:27:55;1.50;99.90
51011;DHT22;37038;50.182;8.624;2023-01-26T13:30:44;1.30;99.90
51011;DHT22;37038;50.182;8.624;2023-01-26T13:33:33;1.20;99.90
51011;DHT22;37038;50.182;8.624;2023-01-26T13:36:27;1.10;99.90
51011;DHT22;37038;50.182;8.624;2023-01-26T13:39:33;1.30;99.90
51011;DHT22;37038;50.182;8.624;2023-01-26T13:42:24;1.50;99.90
51011;DHT22;37038;50.182;8.624;2023-01-26T13:48:43;1.40;99.90
51011;DHT22;37038;50.182;8.624;2023-01-26T13:51:36;1.40;99.90
51011;DHT22;37038;50.182;8.624;2023-01-26T13:54:30;1.40;99.90
51011;DHT22;37038;50.182;8.624;2023-01-26T13:57:22;1.40;99.90
51011;DHT22;37038;50.182;8.624;2023-01-26T14:00:13;1.40;99.90
51011;DHT22;37038;50.182;8.624;2023-01-26T14:03:16;1.40;99.90
51011;DHT22;37038;50.182;8.624;2023-01-26T14:06:18;1.50;99.90
51011;DHT22;37038;50.182;8.624;2023-01-26T14:09:10;1.30;99.90
51011;DHT22;37038;50.182;8.624;2023-01-26T14:12:04;1.10;99.90
51011;DHT22;37038;50.182;8.624;2023-01-26T14:14:57;1.20;99.90
51011;DHT22;37038;50.182;8.624;2023-01-26T14:18:00;1.20;99.90
51011;DHT22;37038;50.182;8.624;2023-01-26T14:21:00;1.10;99.90
51011;DHT22;37038;50.182;8.624;2023-01-26T14:23:55;1.00;99.90
51011;DHT22;37038;50.182;8.624;2023-01-26T14:26:43;0.80;99.90
51011;DHT22;37038;50.182;8.624;2023-01-26T14:29:37;0.90;99.90
51011;DHT22;37038;50.182;8.624;2023-01-26T14:32:29;1.10;99.90
51011;DHT22;37038;50.182;8.624;2023-01-26T14:35:22;1.00;99.90
51011;DHT22;37038;50.182;8.624;2023-01-26T14:38:14;1.00;99.90
51011;DHT22;37038;50.182;8.624;2023-01-26T14:41:16;1.30;99.90
51011;DHT22;37038;50.182;8.624;2023-01-26T14:44:07;1.40;99.90
51011;DHT22;37038;50.182;8.624;2023-01-26T14:47:12;1.30;99.90
51011;DHT22;37038;50.182;8.624;2023-01-26T14:50:14;1.40;99.90
51011;DHT22;37038;50.182;8.624;2023-01-26T14:53:11;1.50;99.90
51011;DHT22;37038;50.182;8.624;2023-01-26T14:56:03;1.60;99.90
51011;DHT22;37038;50.182;8.624;2023-01-26T14:58:53;1.60;99.90
51011;DHT22;37038;50.182;8.624;2023-01-26T15:01:42;1.40;99.90
51011;DHT22;37038;50.182;8.624;2023-01-26T15:04:38;1.50;99.90
51011;DHT22;37038;50.182;8.624;2023-01-26T15:07:41;1.40;99.90
51011;DHT22;37038;50.182;8.624;2023-01-26T15:10:48;1.10;99.90
51011;DHT22;37038;50.182;8.624;2023-01-26T15:14:36;0.90;99.90
51011;DHT22;37038;50.182;8.624;2023-01-26T15:17:41;1.10;99.90
51011;DHT22;37038;50.182;8.624;2023-01-26T15:23:25;1.10;99.90
51011;DHT22;37038;50.182;8.624;2023-01-26T15:29:24;1.50;99.90
51011;DHT22;37038;50.182;8.624;2023-01-26T15:32:28;1.70;99.90
51011;DHT22;37038;50.182;8.624;2023-01-26T15:38:12;1.80;99.90
51011;DHT22;37038;50.182;8.624;2023-01-26T15:41:00;1.80;99.90
51011;DHT22;37038;50.182;8.624;2023-01-26T15:43:48;1.90;99.90
51011;DHT22;37038;50.182;8.624;2023-01-26T15:46:39;1.70;99.90
51011;DHT22;37038;50.182;8.624;2023-01-26T15:49:28;1.60;99.90
51011;DHT22;37038;50.182;8.624;2023-01-26T15:52:18;1.60;99.90
51011;DHT22;37038;50.182;8.624;2023-01-26T15:55:19;1.40;99.90
51011;DHT22;37038;50.182;8.624;2023-01-26T15:58:08;1.00;99.90
51011;DHT22;37038;50.182;8.624;2023-01-26T16:00:57;0.90;99.90
51011;DHT22;37038;50.182;8.624;2023-01-26T16:03:48;1.10;99.90
51011;DHT22;37038;50.182;8.624;2023-01-26T16:06:39;0.80;99.90
51011;DHT22;37038;50.182;8.624;2023-01-26T16:09:28;0.70;99.90
51011;DHT22;37038;50.182;8.624;2023-01-26T16:12:17;0.70;99.90
51011;DHT22;37038;50.182;8.624;2023-01-26T16:15:38;0.70;99.90
51011;DHT22;37038;50.182;8.624;2023-01-26T16:18:27;0.90;99.90
51011;DHT22;37038;50.182;8.624;2023-01-26T16:21:20;1.10;99.90
51011;DHT22;37038;50.182;8.624;2023-01-26T16:24:10;1.30;99.90
51011;DHT22;37038;50.182;8.624;2023-01-26T16:27:06;1.50;99.90
51011;DHT22;37038;50.182;8.624;2023-01-26T16:29:54;1.50;99.90
51011;DHT22;37038;50.182;8.624;2023-01-26T16:32:42;1.40;99.90
51011;DHT22;37038;50.182;8.624;2023-01-26T16:35:33;1.30;99.90
51011;DHT22;37038;50.182;8.624;2023-01-26T16:38:22;1.30;99.90
51011;DHT22;37038;50.182;8.624;2023-01-26T16:41:30;1.30;99.90
51011;DHT22;37038;50.182;8.624;2023-01-26T16:44:19;1.50;99.90
51011;DHT22;37038;50.182;8.624;2023-01-26T16:47:09;1.50;99.90
51011;DHT22;37038;50.182;8.624;2023-01-26T16:49:57;1.60;99.90
51011;DHT22;37038;50.182;8.624;2023-01-26T16:52:46;1.80;99.90
51011;DHT22;37038;50.182;8.624;2023-01-26T16:55:37;1.50;99.90
51011;DHT22;37038;50.182;8.624;2023-01-26T16:58:28;1.20;99.90
51011;DHT22;37038;50.182;8.624;2023-01-26T17:01:23;0.90;99.90
51011;DHT22;37038;50.182;8.624;2023-01-26T17:04:11;0.70;99.90
51011;DHT22;37038;50.182;8.624;2023-01-26T17:06:59;0.70;99.90
51011;DHT22;37038;50.182;8.624;2023-01-26T17:09:47;0.30;99.90
51011;DHT22;37038;50.182;8.624;2023-01-26T17:12:36;0.20;99.90
51011;DHT22;37038;50.182;8.624;2023-01-26T17:15:27;0.20;99.90
51011;DHT22;37038;50.182;8.624;2023-01-26T17:18:15;-0.10;99.90
51011;DHT22;37038;50.182;8.624;2023-01-26T17:21:04;0.00;99.90
51011;DHT22;37038;50.182;8.624;2023-01-26T17:23:53;0.40;99.90
51011;DHT22;37038;50.182;8.624;2023-01-26T17:26:45;0.50;99.90
51011;DHT22;37038;50.182;8.624;2023-01-26T17:29:33;0.70;99.90
51011;DHT22;37038;50.182;8.624;2023-01-26T17:32:22;0.90;99.90
51011;DHT22;37038;50.182;8.624;2023-01-26T17:35:13;0.60;99.90
51011;DHT22;37038;50.182;8.624;2023-01-26T17:38:04;0.10;99.90
51011;DHT22;37038;50.182;8.624;2023-01-26T17:40:55;0.10;99.90
51011;DHT22;37038;50.182;8.624;2023-01-26T17:43:44;0.20;99.90
51011;DHT22;37038;50.182;8.624;2023-01-26T17:46:36;0.40;99.90
51011;DHT22;37038;50.182;8.624;2023-01-26T17:49:24;0.50;99.90
51011;DHT22;37038;50.182;8.624;2023-01-26T17:52:13;0.40;99.90
51011;DHT22;37038;50.182;8.624;2023-01-26T17:55:02;0.40;99.90
51011;DHT22;37038;50.182;8.624;2023-01-26T17:57:53;0.60;99.90
51011;DHT22;37038;50.182;8.624;2023-01-26T18:00:42;0.80;99.90
51011;DHT22;37038;50.182;8.624;2023-01-26T18:03:31;0.80;99.90
51011;DHT22;37038;50.182;8.624;2023-01-26T18:06:20;0.80;99.90
51011;DHT22;37038;50.182;8.624;2023-01-26T18:09:08;0.90;99.90
51011;DHT22;37038;50.182;8.624;2023-01-26T18:11:56;0.90;99.90
51011;DHT22;37038;50.182;8.624;2023-01-26T18:14:44;1.00;99.90
51011;DHT22;37038;50.182;8.624;2023-01-26T18:17:34;1.00;99.90
51011;DHT22;37038;50.182;8.624;2023-01-26T18:20:23;0.90;99.90
51011;DHT22;37038;50.182;8.624;2023-01-26T18:23:11;0.90;99.90
51011;DHT22;37038;50.182;8.624;2023-01-26T18:26:01;1.10;99.90
51011;DHT22;37038;50.182;8.624;2023-01-26T18:28:53;1.30;99.90
51011;DHT22;37038;50.182;8.624;2023-01-26T18:31:41;1.40;99.90
51011;DHT22;37038;50.182;8.624;2023-01-26T18:34:30;1.60;99.90
51011;DHT22;37038;50.182;8.624;2023-01-26T18:37:19;1.60;99.90
51011;DHT22;37038;50.182;8.624;2023-01-26T18:40:08;1.70;99.90
51011;DHT22;37038;50.182;8.624;2023-01-26T18:42:56;1.70;99.90
51011;DHT22;37038;50.182;8.624;2023-01-26T18:45:45;1.70;99.90
51011;DHT22;37038;50.182;8.624;2023-01-26T18:48:33;1.30;99.90
51011;DHT22;37038;50.182;8.624;2023-01-26T18:51:31;1.60;99.90
51011;DHT22;37038;50.182;8.624;2023-01-26T18:54:20;1.70;99.90
51011;DHT22;37038;50.182;8.624;2023-01-26T18:57:08;1.20;99.90
51011;DHT22;37038;50.182;8.624;2023-01-26T18:59:56;0.80;99.90
51011;DHT22;37038;50.182;8.624;2023-01-26T19:02:44;0.90;99.90
51011;DHT22;37038;50.182;8.624;2023-01-26T19:05:32;0.80;99.90
51011;DHT22;37038;50.182;8.624;2023-01-26T19:08:20;0.70;99.90
51011;DHT22;37038;50.182;8.624;2023-01-26T19:11:15;0.60;99.90
51011;DHT22;37038;50.182;8.624;2023-01-26T19:14:05;0.70;99.90
51011;DHT22;37038;50.182;8.624;2023-01-26T19:16:56;0.50;99.90
51011;DHT22;37038;50.182;8.624;2023-01-26T19:19:44;0.40;99.90
51011;DHT22;37038;50.182;8.624;2023-01-26T19:22:45;0.60;99.90
51011;DHT22;37038;50.182;8.624;2023-01-26T19:25:46;0.70;99.90
51011;DHT22;37038;50.182;8.624;2023-01-26T19:28:35;0.60;99.90
51011;DHT22;37038;50.182;8.624;2023-01-26T19:31:24;0.60;99.90
51011;DHT22;37038;50.182;8.624;2023-01-26T19:34:13;0.80;99.90
51011;DHT22;37038;50.182;8.624;2023-01-26T19:37:03;0.60;99.90
51011;DHT22;37038;50.182;8.624;2023-01-26T19:39:51;0.80;99.90
51011;DHT22;37038;50.182;8.624;2023-01-26T19:46:21;0.60;99.90
51011;DHT22;37038;50.182;8.624;2023-01-26T19:49:21;0.70;99.90
51011;DHT22;37038;50.182;8.624;2023-01-26T19:52:13;1.00;99.90
51011;DHT22;37038;50.182;8.624;2023-01-26T19:55:05;1.00;99.90
51011;DHT22;37038;50.182;8.624;2023-01-26T19:58:01;1.00;99.90
51011;DHT22;37038;50.182;8.624;2023-01-26T20:01:02;0.90;99.90
51011;DHT22;37038;50.182;8.624;2023-01-26T20:04:02;0.60;99.90
51011;DHT22;37038;50.182;8.624;2023-01-26T20:06:56;0.60;99.90
51011;DHT22;37038;50.182;8.624;2023-01-26T20:09:44;0.70;99.90
51011;DHT22;37038;50.182;8.624;2023-01-26T20:12:37;0.70;99.90
51011;DHT22;37038;50.182;8.624;2023-01-26T20:15:34;0.50;99.90
51011;DHT22;37038;50.182;8.624;2023-01-26T20:18:36;0.70;99.90
51011;DHT22;37038;50.182;8.624;2023-01-26T20:21:34;0.70;99.90
51011;DHT22;37038;50.182;8.624;2023-01-26T20:24:24;0.80;99.90
51011;DHT22;37038;50.182;8.624;2023-01-26T20:27:15;0.50;99.90
51011;DHT22;37038;50.182;8.624;2023-01-26T20:30:04;0.30;99.90
51011;DHT22;37038;50.182;8.624;2023-01-26T20:32:52;0.30;99.90
51011;DHT22;37038;50.182;8.624;2023-01-26T20:35:46;0.30;99.90
51011;DHT22;37038;50.182;8.624;2023-01-26T20:38:37;0.30;99.90
51011;DHT22;37038;50.182;8.624;2023-01-26T20:41:29;0.40;99.90
51011;DHT22;37038;50.182;8.624;2023-01-26T20:44:18;0.30;99.90
51011;DHT22;37038;50.182;8.624;2023-01-26T20:47:05;0.30;99.90
51011;DHT22;37038;50.182;8.624;2023-01-26T20:49:56;0.40;99.90
51011;DHT22;37038;50.182;8.624;2023-01-26T20:52:50;0.20;99.90
51011;DHT22;37038;50.182;8.624;2023-01-26T20:55:38;0.20;99.90
51011;DHT22;37038;50.182;8.624;2023-01-26T20:58:28;0.20;99.90
51011;DHT22;37038;50.182;8.624;2023-01-26T21:01:36;0.10;99.90
51011;DHT22;37038;50.182;8.624;2023-01-26T21:04:24;0.00;99.90
51011;DHT22;37038;50.182;8.624;2023-01-26T21:07:16;0.10;99.90
51011;DHT22;37038;50.182;8.624;2023-01-26T21:10:07;0.20;99.90
51011;DHT22;37038;50.182;8.624;2023-01-26T21:12:55;0.10;99.90
51011;DHT22;37038;50.182;8.624;2023-01-26T21:15:43;0.10;99.90
51011;DHT22;37038;50.182;8.624;2023-01-26T21:18:40;0.30;99.90
51011;DHT22;37038;50.182;8.624;2023-01-26T21:21:28;0.30;99.90
51011;DHT22;37038;50.182;8.624;2023-01-26T21:24:15;0.40;99.90
51011;DHT22;37038;50.182;8.624;2023-01-26T21:27:03;0.30;99.90
51011;DHT22;37038;50.182;8.624;2023-01-26T21:29:53;0.50;99.90
51011;DHT22;37038;50.182;8.624;2023-01-26T21:32:40;0.60;99.90
51011;DHT22;37038;50.182;8.624;2023-01-26T21:35:30;0.70;99.90
51011;DHT22;37038;50.182;8.624;2023-01-26T21:38:21;0.50;99.90
51011;DHT22;37038;50.182;8.624;2023-01-26T21:41:29;0.70;99.90
51011;DHT22;37038;50.182;8.624;2023-01-26T21:44:36;0.50;99.90
51011;DHT22;37038;50.182;8.624;2023-01-26T21:47:46;0.20;99.90
51011;DHT22;37038;50.182;8.624;2023-01-26T21:50:58;0.30;99.90
51011;DHT22;37038;50.182;8.624;2023-01-26T21:54:05;0.30;99.90
51011;DHT22;37038;50.182;8.624;2023-01-26T21:56:53;0.10;99.90
51011;DHT22;37038;50.182;8.624;2023-01-26T21:59:41;0.10;99.90
51011;DHT22;37038;50.182;8.624;2023-01-26T22:02:29;0.10;99.90
51011;DHT22;37038;50.182;8.624;2023-01-26T22:05:16;0.30;99.90
51011;DHT22;37038;50.182;8.624;2023-01-26T22:08:04;0.80;99.90
51011;DHT22;37038;50.182;8.624;2023-01-26T22:10:55;1.10;99.90
51011;DHT22;37038;50.182;8.624;2023-01-26T22:13:45;1.30;99.90
51011;DHT22;37038;50.182;8.624;2023-01-26T22:16:33;1.50;99.90
51011;DHT22;37038;50.182;8.624;2023-01-26T22:19:21;1.30;99.90
51011;DHT22;37038;50.182;8.624;2023-01-26T22:22:12;1.40;99.90
51011;DHT22;37038;50.182;8.624;2023-01-26T22:24:59;1.40;99.90
51011;DHT22;37038;50.182;8.624;2023-01-26T22:27:49;1.60;99.90
51011;DHT22;37038;50.182;8.624;2023-01-26T22:30:37;1.70;99.90
51011;DHT22;37038;50.182;8.624;2023-01-26T22:33:25;1.70;99.90
51011;DHT22;37038;50.182;8.624;2023-01-26T22:36:13;1.50;99.90
51011;DHT22;37038;50.182;8.624;2023-01-26T22:39:02;1.50;99.90
51011;DHT22;37038;50.182;8.624;2023-01-26T22:41:49;1.50;99.90
51011;DHT22;37038;50.182;8.624;2023-01-26T22:44:37;1.50;99.90
51011;DHT22;37038;50.182;8.624;2023-01-26T22:47:25;1.50;99.90
51011;DHT22;37038;50.182;8.624;2023-01-26T22:50:12;1.60;99.90
51011;DHT22;37038;50.182;8.624;2023-01-26T22:53:00;1.70;99.90
51011;DHT22;37038;50.182;8.624;2023-01-26T22:55:51;1.80;99.90
51011;DHT22;37038;50.182;8.624;2023-01-26T22:58:40;1.90;99.90